Time;durP1;ratioP1;P1;durP2;ratioP2;P2;SDS_P1;SDS_P2;PMS_P1;PMS_P2;Temp;Humidity;BMP_temperature;BMP_pressure;BME280_temperature;BME280_humidity;BME280_pressure;Samples;Min_cycle;Max_cycle;Signal;HPM_P1;HPM_P2
2022/08/20 00:00:35;;;;;;;35.87;32.37;;;19.30;1.00;;;;;;5027626;28;20456;-62
2022/08/20 00:03:26;;;;;;;35.50;31.67;;;19.30;1.00;;;;;;5027704;28;20506;-60
2022/08/20 00:05:56;;;;;;;33.90;30.47;;;19.30;1.00;;;;;;5027519;28;20482;-61
2022/08/20 00:08:23;;;;;;;34.33;30.90;;;19.30;1.00;;;;;;5027098;28;20394;-61
2022/08/20 00:10:50;;;;;;;37.47;33.50;;;19.20;1.00;;;;;;5024632;28;20913;-59
2022/08/20 00:13:29;;;;;;;34.30;30.90;;;19.20;1.00;;;;;;5026062;28;20451;-62
2022/08/20 00:15:55;;;;;;;33.77;30.40;;;19.20;1.00;;;;;;5027425;28;20556;-57
2022/08/20 00:18:22;;;;;;;32.43;28.93;;;19.30;1.00;;;;;;5026492;28;20753;-61
2022/08/20 00:20:51;;;;;;;34.00;30.60;;;19.30;1.00;;;;;;5027885;28;20461;-59
2022/08/20 00:23:18;;;;;;;30.73;27.77;;;19.30;1.00;;;;;;5027773;28;20756;-59
2022/08/20 00:25:44;;;;;;;34.10;30.40;;;19.30;1.00;;;;;;5026591;28;20394;-58
2022/08/20 00:28:11;;;;;;;31.87;28.70;;;19.30;1.00;;;;;;5025977;28;20929;-60
2022/08/20 00:30:39;;;;;;;29.40;26.70;;;19.30;1.00;;;;;;5027105;28;20501;-61
2022/08/20 00:33:12;;;;;;;31.73;28.30;;;19.30;1.00;;;;;;5027754;28;20438;-59
2022/08/20 00:35:41;;;;;;;28.43;25.70;;;19.30;1.00;;;;;;5027080;28;20386;-60
2022/08/20 00:38:07;;;;;;;31.77;28.63;;;19.30;1.00;;;;;;5027070;28;20460;-60
2022/08/20 00:40:40;;;;;;;30.70;27.50;;;19.30;1.00;;;;;;5021157;28;20457;-60
2022/08/20 00:43:24;;;;;;;28.97;25.37;;;19.30;1.00;;;;;;5023369;28;20171;-59
2022/08/20 00:45:54;;;;;;;27.30;24.30;;;19.30;1.00;;;;;;5024771;28;20483;-60
2022/08/20 00:48:20;;;;;;;29.30;25.50;;;19.20;1.00;;;;;;5010818;28;20477;-60
2022/08/20 00:50:46;;;;;;;30.83;27.30;;;19.20;1.00;;;;;;5031738;28;20406;-61
2022/08/20 00:53:13;;;;;;;24.87;22.43;;;19.20;1.00;;;;;;5030150;28;20414;-60
2022/08/20 00:55:40;;;;;;;29.70;24.97;;;19.20;1.00;;;;;;5030104;28;20414;-61
2022/08/20 00:58:08;;;;;;;27.20;24.37;;;19.20;1.00;;;;;;5021626;28;20436;-60
2022/08/20 01:00:44;;;;;;;26.63;24.00;;;19.30;1.00;;;;;;5030317;28;20489;-60
2022/08/20 01:03:13;;;;;;;27.47;24.60;;;19.30;1.00;;;;;;5029438;28;20429;-62
2022/08/20 01:05:43;;;;;;;27.20;24.40;;;19.20;1.00;;;;;;5030436;28;20728;-61
2022/08/20 01:08:10;;;;;;;27.53;24.90;;;19.30;1.00;;;;;;5028276;28;20487;-62
2022/08/20 01:10:39;;;;;;;30.67;25.83;;;19.30;1.00;;;;;;5029663;28;20440;-61
2022/08/20 01:13:11;;;;;;;25.57;23.17;;;19.20;1.00;;;;;;5012390;28;20422;-62
2022/08/20 01:15:43;;;;;;;24.13;21.40;;;19.30;1.00;;;;;;5030322;28;20418;-62
2022/08/20 01:18:20;;;;;;;25.57;22.63;;;19.20;1.00;;;;;;5030320;28;20421;-60
2022/08/20 01:20:50;;;;;;;25.57;23.17;;;19.30;1.00;;;;;;5030347;28;20438;-61
2022/08/20 01:23:33;;;;;;;23.10;21.00;;;19.30;1.00;;;;;;5029077;28;20419;-60
2022/08/20 01:26:02;;;;;;;22.70;20.40;;;19.30;1.00;;;;;;5030124;28;20399;-61
2022/08/20 01:28:45;;;;;;;20.63;18.73;;;19.20;1.00;;;;;;5029319;28;20507;-59
2022/08/20 01:31:17;;;;;;;19.80;18.00;;;19.20;1.00;;;;;;5030089;28;20820;-62
2022/08/20 01:33:44;;;;;;;20.20;18.40;;;19.20;1.00;;;;;;5030205;28;20998;-60
2022/08/20 01:36:11;;;;;;;18.97;17.27;;;19.30;1.00;;;;;;5030519;28;20403;-59
2022/08/20 01:38:37;;;;;;;20.03;18.03;;;19.20;1.00;;;;;;5030471;28;20425;-60
2022/08/20 01:41:15;;;;;;;22.77;18.03;;;19.20;1.00;;;;;;5031617;28;20410;-63
2022/08/20 01:43:44;;;;;;;18.20;16.47;;;19.20;1.00;;;;;;5034352;28;20458;-61
2022/08/20 01:46:10;;;;;;;23.53;17.57;;;19.20;1.00;;;;;;5029554;28;20502;-62
2022/08/20 01:48:37;;;;;;;18.80;16.23;;;19.30;1.00;;;;;;5029427;28;20421;-61
2022/08/20 01:51:19;;;;;;;17.87;16.13;;;19.30;1.00;;;;;;5012082;28;20513;-61
2022/08/20 01:53:49;;;;;;;21.10;18.03;;;19.20;1.00;;;;;;5028821;28;20485;-63
2022/08/20 01:56:20;;;;;;;17.70;15.90;;;19.20;1.00;;;;;;5029281;28;20421;-60
2022/08/20 01:58:49;;;;;;;19.50;17.40;;;19.20;1.00;;;;;;5028725;28;20454;-60
2022/08/20 02:01:38;;;;;;;16.50;14.87;;;19.10;1.00;;;;;;5029076;28;20407;-61
2022/08/20 02:04:06;;;;;;;15.97;14.47;;;19.20;1.00;;;;;;5047014;28;20942;-61
2022/08/20 02:06:34;;;;;;;16.90;15.27;;;19.20;1.00;;;;;;5049527;28;20420;-61
2022/08/20 02:09:02;;;;;;;15.87;14.03;;;19.20;1.00;;;;;;5048896;28;20418;-63
2022/08/20 02:11:29;;;;;;;16.10;13.27;;;19.20;1.00;;;;;;5031038;28;20540;-62
2022/08/20 02:13:56;;;;;;;14.57;13.17;;;19.20;1.00;;;;;;5029679;28;20530;-62
2022/08/20 02:16:28;;;;;;;18.43;12.10;;;19.20;1.00;;;;;;5026191;28;20438;-62
2022/08/20 02:18:57;;;;;;;14.70;13.00;;;19.20;1.00;;;;;;5024572;28;20604;-62
2022/08/20 02:21:27;;;;;;;13.43;12.20;;;19.20;1.00;;;;;;5026457;28;20410;-58
2022/08/20 02:23:53;;;;;;;13.90;11.63;;;19.20;1.00;;;;;;5026796;28;20518;-62
2022/08/20 02:26:19;;;;;;;13.00;11.73;;;19.30;1.00;;;;;;5023593;28;20411;-61
2022/08/20 02:28:48;;;;;;;12.43;10.10;;;19.30;1.00;;;;;;5028400;28;20410;-61
2022/08/20 02:31:16;;;;;;;20.23;12.10;;;19.30;1.00;;;;;;5026914;28;20430;-59
2022/08/20 02:33:42;;;;;;;15.03;11.03;;;19.30;1.00;;;;;;5027567;28;20446;-62
2022/08/20 02:36:11;;;;;;;10.63;9.40;;;19.30;1.00;;;;;;5008704;28;20945;-61
2022/08/20 02:38:40;;;;;;;10.47;9.20;;;19.30;1.00;;;;;;5027623;28;20410;-62
2022/08/20 02:41:09;;;;;;;9.93;9.03;;;19.30;1.00;;;;;;5028616;28;20418;-62
2022/08/20 02:43:36;;;;;;;12.17;11.07;;;19.20;1.00;;;;;;5027933;28;20472;-61
2022/08/20 02:46:03;;;;;;;12.73;9.40;;;19.20;1.00;;;;;;5028603;28;20600;-61
2022/08/20 02:48:30;;;;;;;13.53;10.50;;;19.20;1.00;;;;;;5028129;28;20913;-61
2022/08/20 02:51:03;;;;;;;10.53;9.43;;;19.20;1.00;;;;;;5029202;28;20410;-62
2022/08/20 02:53:32;;;;;;;11.70;9.00;;;19.10;1.00;;;;;;5010310;28;20470;-61
2022/08/20 02:55:59;;;;;;;12.27;8.67;;;19.10;1.00;;;;;;5028498;28;20411;-61
2022/08/20 02:58:25;;;;;;;7.97;7.17;;;19.10;1.00;;;;;;5028181;28;20509;-60
2022/08/20 03:00:52;;;;;;;7.60;6.90;;;19.10;1.00;;;;;;5028655;28;20908;-60
2022/08/20 03:03:21;;;;;;;8.93;5.70;;;19.10;1.00;;;;;;5028100;28;20553;-62
2022/08/20 03:05:49;;;;;;;6.00;5.40;;;19.00;1.00;;;;;;5028874;28;20855;-61
2022/08/20 03:08:15;;;;;;;8.83;5.83;;;19.00;1.00;;;;;;5028316;28;20536;-61
2022/08/20 03:10:44;;;;;;;7.87;5.33;;;19.00;1.00;;;;;;5028353;28;20417;-60
2022/08/20 03:13:11;;;;;;;7.10;4.77;;;19.00;1.00;;;;;;5027879;28;20826;-61
2022/08/20 03:15:40;;;;;;;11.30;5.20;;;19.00;1.00;;;;;;5028269;28;20763;-60
2022/08/20 03:18:06;;;;;;;11.00;5.13;;;19.00;1.00;;;;;;5028605;28;20419;-61
2022/08/20 03:20:32;;;;;;;8.90;4.60;;;19.00;1.00;;;;;;5027795;28;20446;-62
2022/08/20 03:22:57;;;;;;;8.27;4.40;;;19.00;1.00;;;;;;5027827;28;20263;-61
2022/08/20 03:25:24;;;;;;;8.23;4.57;;;19.00;1.00;;;;;;5028608;28;20406;-60
2022/08/20 03:27:50;;;;;;;5.50;5.00;;;19.00;1.00;;;;;;5028214;28;20167;-61
2022/08/20 03:30:18;;;;;;;8.27;4.53;;;18.90;1.00;;;;;;5028556;28;20430;-61
2022/08/20 03:32:45;;;;;;;7.93;4.40;;;18.90;1.00;;;;;;5037179;28;20738;-62
2022/08/20 03:35:13;;;;;;;5.40;4.20;;;18.90;1.00;;;;;;5025549;28;20441;-60
2022/08/20 03:37:40;;;;;;;9.40;4.40;;;18.90;1.00;;;;;;5028057;28;20438;-60
2022/08/20 03:40:11;;;;;;;4.93;4.43;;;18.90;1.00;;;;;;5027918;28;20486;-61
2022/08/20 03:42:38;;;;;;;11.40;5.10;;;18.90;1.00;;;;;;5027290;28;20815;-61
2022/08/20 03:45:05;;;;;;;13.20;4.60;;;18.90;1.00;;;;;;5028039;28;20869;-61
2022/08/20 03:47:31;;;;;;;8.50;4.90;;;18.90;1.00;;;;;;5007959;28;20884;-61
2022/08/20 03:49:58;;;;;;;7.23;4.37;;;18.90;1.00;;;;;;5008213;28;20549;-59
2022/08/20 03:52:26;;;;;;;7.30;4.37;;;18.90;1.00;;;;;;5010183;28;20187;-62
2022/08/20 03:54:51;;;;;;;15.53;5.53;;;18.90;1.00;;;;;;5028803;28;20446;-61
2022/08/20 03:57:17;;;;;;;7.07;4.90;;;18.90;1.00;;;;;;5027754;28;20422;-60
2022/08/20 03:59:43;;;;;;;7.00;4.30;;;18.90;1.00;;;;;;5028250;28;20195;-60
2022/08/20 04:02:10;;;;;;;8.57;5.07;;;19.00;1.00;;;;;;5026662;28;20171;-59
2022/08/20 04:04:38;;;;;;;7.40;4.90;;;18.90;1.00;;;;;;5027186;28;20282;-61
2022/08/20 04:07:19;;;;;;;14.90;6.07;;;18.90;1.00;;;;;;5027576;28;20456;-60
2022/08/20 04:09:45;;;;;;;6.93;6.23;;;18.80;1.00;;;;;;5028133;28;20402;-61
2022/08/20 04:12:13;;;;;;;10.90;6.20;;;18.90;1.00;;;;;;5027741;28;20406;-62
2022/08/20 04:14:39;;;;;;;10.53;5.70;;;18.90;1.00;;;;;;5028111;28;20214;-60
2022/08/20 04:17:07;;;;;;;20.90;6.90;;;18.90;1.00;;;;;;5027166;28;20749;-61
2022/08/20 04:19:34;;;;;;;17.97;7.60;;;18.80;1.00;;;;;;5027675;28;20227;-58
2022/08/20 04:21:59;;;;;;;16.47;7.97;;;18.80;1.00;;;;;;5029754;28;20783;-59
2022/08/20 04:24:26;;;;;;;11.83;7.10;;;18.80;1.00;;;;;;5031003;28;20442;-59
2022/08/20 04:26:53;;;;;;;11.50;6.90;;;18.80;1.00;;;;;;5031549;28;20186;-59
2022/08/20 04:29:20;;;;;;;21.10;8.27;;;18.70;1.00;;;;;;5031650;28;20905;-63
2022/08/20 04:31:46;;;;;;;42.57;10.47;;;18.70;1.00;;;;;;5039761;28;20417;-60
2022/08/20 04:34:12;;;;;;;12.63;6.20;;;18.70;1.00;;;;;;5035503;28;20477;-57
2022/08/20 04:36:39;;;;;;;18.87;6.60;;;18.80;1.00;;;;;;5032263;28;20413;-62
2022/08/20 04:39:05;;;;;;;20.87;7.10;;;18.70;1.00;;;;;;5031486;28;20262;-58
2022/08/20 04:41:31;;;;;;;22.43;7.87;;;18.80;1.00;;;;;;5031294;28;20410;-62
2022/08/20 04:43:57;;;;;;;14.43;6.23;;;18.70;1.00;;;;;;5031522;28;20621;-63
2022/08/20 04:46:26;;;;;;;8.90;6.70;;;18.70;1.00;;;;;;5031687;28;20410;-63
2022/08/20 04:48:53;;;;;;;17.27;6.87;;;18.60;1.00;;;;;;5031263;28;20509;-63
2022/08/20 04:51:19;;;;;;;20.80;7.33;;;18.60;1.00;;;;;;5032024;28;20414;-64
2022/08/20 04:56:17;;;;;;;18.67;6.63;;;18.60;1.00;;;;;;5028565;28;20473;-67
2022/08/20 04:58:47;;;;;;;6.43;5.77;;;18.60;1.00;;;;;;5031845;28;20464;-68
2022/08/20 05:01:13;;;;;;;11.70;6.33;;;18.70;1.00;;;;;;5031872;28;20410;-68
2022/08/20 05:03:40;;;;;;;24.93;8.73;;;18.60;1.00;;;;;;5031061;28;20442;-68
2022/08/20 05:06:08;;;;;;;22.47;7.90;;;18.70;1.00;;;;;;5011730;28;20476;-68
2022/08/20 05:08:37;;;;;;;17.50;6.53;;;18.70;1.00;;;;;;5011720;28;20419;-68
2022/08/20 05:11:03;;;;;;;37.37;7.87;;;18.80;1.00;;;;;;5011308;28;20415;-68
2022/08/20 05:13:29;;;;;;;17.20;5.97;;;18.80;1.00;;;;;;5011288;28;20865;-68
2022/08/20 05:15:56;;;;;;;25.60;6.53;;;18.80;1.00;;;;;;5002858;28;20477;-68
2022/08/20 05:18:25;;;;;;;24.77;7.37;;;18.80;1.00;;;;;;5018215;28;20173;-68
2022/08/20 05:20:51;;;;;;;23.93;6.70;;;18.80;1.00;;;;;;5029768;28;20510;-69
2022/08/20 05:23:19;;;;;;;28.83;7.00;;;18.80;1.00;;;;;;5028556;28;20438;-69
2022/08/20 05:25:50;;;;;;;34.07;8.10;;;18.90;1.00;;;;;;5015386;28;20533;-68
2022/08/20 05:28:20;;;;;;;19.50;7.00;;;18.90;1.00;;;;;;5009656;28;20427;-70
2022/08/20 05:30:47;;;;;;;31.47;7.43;;;19.00;1.00;;;;;;5009981;28;20423;-70
2022/08/20 05:33:16;;;;;;;24.40;6.67;;;19.10;1.00;;;;;;5008868;28;20464;-70
2022/08/20 05:35:42;;;;;;;25.63;7.70;;;19.20;1.00;;;;;;4992770;28;20846;-69
2022/08/20 05:38:12;;;;;;;27.33;7.30;;;19.20;1.00;;;;;;5010279;28;20529;-69
2022/08/20 05:40:39;;;;;;;25.57;7.20;;;19.30;1.00;;;;;;5004566;28;20989;-69
2022/08/20 05:43:06;;;;;;;28.90;6.80;;;19.30;1.00;;;;;;5007687;28;20466;-70
2022/08/20 05:45:36;;;;;;;27.17;6.90;;;19.20;1.00;;;;;;5008498;28;20461;-70
2022/08/20 05:48:10;;;;;;;19.20;6.70;;;19.10;1.00;;;;;;5009337;28;20509;-70
2022/08/20 05:50:38;;;;;;;12.23;5.03;;;19.10;1.00;;;;;;5003445;28;20441;-70
2022/08/20 05:53:05;;;;;;;14.63;6.10;;;19.20;1.00;;;;;;5008991;28;20534;-69
2022/08/20 05:55:31;;;;;;;14.80;5.63;;;19.20;1.00;;;;;;5008775;28;20465;-69
2022/08/20 05:57:58;;;;;;;17.17;6.23;;;19.50;1.00;;;;;;5009050;28;20825;-70
2022/08/20 06:00:25;;;;;;;7.90;5.30;;;19.70;99.90;;;;;;4990774;28;20534;-70
2022/08/20 06:05:36;;;;;;;26.30;6.30;;;19.70;99.90;;;;;;5003344;28;20465;-70
2022/08/20 06:08:07;;;;;;;20.30;5.70;;;19.60;99.90;;;;;;5008584;28;20415;-70
2022/08/20 06:10:34;;;;;;;32.00;6.87;;;19.50;1.00;;;;;;5009223;28;20172;-70
2022/08/20 06:12:59;;;;;;;15.40;7.40;;;19.50;1.00;;;;;;5009052;28;20992;-70
2022/08/20 06:15:25;;;;;;;14.20;6.20;;;19.50;1.00;;;;;;5008848;28;20459;-70
2022/08/20 06:17:51;;;;;;;11.80;5.90;;;19.40;1.00;;;;;;5008874;28;20179;-70
2022/08/20 06:20:17;;;;;;;9.50;5.13;;;19.40;1.00;;;;;;5007807;28;20650;-67
2022/08/20 06:22:43;;;;;;;14.70;6.73;;;19.30;1.00;;;;;;5008845;28;20180;-68
2022/08/20 06:25:09;;;;;;;6.40;5.80;;;19.90;1.00;;;;;;5008732;28;20195;-69
2022/08/20 06:27:40;;;;;;;8.03;5.50;;;20.40;1.00;;;;;;5003649;28;20507;-69
2022/08/20 06:30:10;;;;;;;8.40;6.00;;;20.60;99.90;;;;;;5001657;28;20525;-69
2022/08/20 06:32:36;;;;;;;8.67;6.30;;;20.80;20.30;;;;;;5006940;28;20440;-69
2022/08/20 06:35:04;;;;;;;18.20;5.73;;;21.00;1.00;;;;;;5008275;28;20461;-69
2022/08/20 06:37:32;;;;;;;10.97;5.00;;;21.20;1.00;;;;;;5005022;28;20423;-70
2022/08/20 06:40:09;;;;;;;13.33;5.60;;;21.20;1.00;;;;;;5008285;28;20451;-68
2022/08/20 06:42:42;;;;;;;10.03;5.70;;;21.30;1.00;;;;;;5003254;28;20434;-68
2022/08/20 06:45:14;;;;;;;29.13;6.57;;;21.30;1.00;;;;;;5006324;28;20846;-68
2022/08/20 06:47:42;;;;;;;10.40;5.63;;;21.20;1.00;;;;;;5007244;28;20506;-69
2022/08/20 06:50:15;;;;;;;12.57;5.53;;;21.20;95.40;;;;;;5000852;28;20419;-65
2022/08/20 06:52:40;;;;;;;16.17;5.93;;;21.30;4.40;;;;;;5007174;28;20450;-66
2022/08/20 06:55:09;;;;;;;18.23;5.80;;;21.40;1.00;;;;;;5005862;28;20594;-65
2022/08/20 06:57:36;;;;;;;18.03;6.63;;;21.40;1.00;;;;;;5005949;28;20180;-66
2022/08/20 07:00:15;;;;;;;14.63;6.10;;;21.50;1.00;;;;;;5005881;28;20947;-67
2022/08/20 07:02:41;;;;;;;13.47;5.73;;;21.60;1.00;;;;;;5004490;28;20457;-66
2022/08/20 07:05:07;;;;;;;11.93;5.57;;;21.70;1.00;;;;;;5005742;28;20974;-66
2022/08/20 07:07:33;;;;;;;12.30;5.90;;;21.70;99.90;;;;;;5008860;28;20180;-67
2022/08/20 07:10:01;;;;;;;17.60;6.17;;;21.80;1.00;;;;;;5011220;28;20429;-68
2022/08/20 07:12:26;;;;;;;10.87;5.87;;;21.80;1.00;;;;;;5013766;28;20176;-68
2022/08/20 07:14:52;;;;;;;12.83;6.00;;;21.80;1.00;;;;;;5016536;28;20977;-68
2022/08/20 07:17:18;;;;;;;11.40;5.40;;;21.80;1.00;;;;;;5014175;28;20180;-66
2022/08/20 07:19:43;;;;;;;24.33;7.37;;;21.80;1.00;;;;;;5015465;28;20267;-67
2022/08/20 07:22:11;;;;;;;15.43;4.97;;;21.80;1.00;;;;;;5014136;28;20640;-66
2022/08/20 07:24:37;;;;;;;11.30;6.00;;;21.80;1.00;;;;;;5010651;28;20419;-66
2022/08/20 07:27:03;;;;;;;17.20;6.27;;;21.90;1.00;;;;;;5006219;28;20494;-66
2022/08/20 07:32:33;;;;;;;14.73;5.90;;;21.90;99.90;;;;;;5007305;28;20458;-67
2022/08/20 07:32:33;;;;;;;12.30;5.87;;;21.90;99.90;;;;;;5007275;28;20427;-68
2022/08/20 07:34:59;;;;;;;14.77;5.50;;;21.80;99.90;;;;;;5006798;28;20463;-68
2022/08/20 07:37:25;;;;;;;15.33;6.77;;;21.60;1.00;;;;;;5006146;28;20518;-68
2022/08/20 07:39:51;;;;;;;10.47;5.40;;;21.80;1.00;;;;;;4992129;28;20594;-68
2022/08/20 07:42:17;;;;;;;24.37;6.87;;;21.80;1.00;;;;;;5005487;28;20541;-67
2022/08/20 07:44:43;;;;;;;24.10;7.40;;;21.90;1.00;;;;;;5006959;28;20489;-68
2022/08/20 07:47:09;;;;;;;15.27;6.77;;;22.00;99.90;;;;;;5006213;28;20498;-68
2022/08/20 07:49:39;;;;;;;12.73;6.80;;;21.90;1.00;;;;;;5005986;28;20195;-67
2022/08/20 07:52:05;;;;;;;13.80;7.90;;;21.90;1.00;;;;;;5004922;28;20176;-67
2022/08/20 07:54:31;;;;;;;10.60;7.10;;;21.90;1.00;;;;;;5006835;28;20821;-68
2022/08/20 07:57:03;;;;;;;14.80;6.30;;;21.80;99.90;;;;;;5009320;28;20438;-67
2022/08/20 07:59:30;;;;;;;14.77;7.47;;;21.80;1.00;;;;;;5010743;28;20367;-67
2022/08/20 08:01:57;;;;;;;14.43;7.80;;;21.80;99.90;;;;;;5010221;28;20855;-65
2022/08/20 08:04:23;;;;;;;25.23;9.40;;;21.90;1.00;;;;;;5009076;28;20800;-68
2022/08/20 08:06:50;;;;;;;24.73;8.60;;;21.90;99.90;;;;;;5012253;28;20443;-67
2022/08/20 08:09:16;;;;;;;25.00;8.77;;;21.90;1.00;;;;;;5012684;28;20717;-66
2022/08/20 08:11:48;;;;;;;24.30;8.43;;;21.90;99.90;;;;;;5012939;28;20469;-67
2022/08/20 08:14:18;;;;;;;19.93;9.30;;;21.90;1.00;;;;;;5012792;28;20462;-67
2022/08/20 08:16:44;;;;;;;32.03;9.43;;;21.90;1.00;;;;;;5011986;28;20423;-66
2022/08/20 08:19:13;;;;;;;17.00;7.70;;;21.80;99.90;;;;;;5011492;28;20447;-67
2022/08/20 08:21:40;;;;;;;17.90;8.30;;;21.70;13.60;;;;;;5012520;28;20839;-66
2022/08/20 08:24:06;;;;;;;19.33;9.27;;;21.60;99.90;;;;;;5007901;28;20569;-67
2022/08/20 08:26:32;;;;;;;15.93;9.20;;;21.60;99.90;;;;;;5009569;28;20419;-66
2022/08/20 08:28:57;;;;;;;11.93;8.87;;;21.40;1.00;;;;;;5008755;28;20427;-67
2022/08/20 08:31:24;;;;;;;9.80;7.70;;;21.20;1.00;;;;;;5011285;28;20184;-66
2022/08/20 08:33:50;;;;;;;18.83;8.43;;;21.10;99.90;;;;;;5012815;28;20263;-66
2022/08/20 08:36:16;;;;;;;10.80;7.20;;;21.30;99.90;;;;;;5012995;28;20469;-65
2022/08/20 08:38:44;;;;;;;23.07;8.43;;;21.50;1.00;;;;;;5012917;28;20181;-65
2022/08/20 08:41:17;;;;;;;17.10;7.73;;;21.70;1.00;;;;;;5012359;28;20415;-66
2022/08/20 08:43:45;;;;;;;15.67;7.33;;;21.90;99.90;;;;;;5010221;28;20441;-66
2022/08/20 08:46:14;;;;;;;15.57;7.83;;;22.00;99.90;;;;;;5012943;28;20430;-68
2022/08/20 08:48:44;;;;;;;8.60;7.53;;;22.00;99.90;;;;;;4995760;28;20506;-68
2022/08/20 08:51:11;;;;;;;16.80;8.97;;;22.10;1.00;;;;;;5014103;28;20429;-67
2022/08/20 08:53:53;;;;;;;8.33;7.10;;;22.10;99.90;;;;;;5011621;28;20419;-68
2022/08/20 08:56:23;;;;;;;9.13;6.73;;;22.10;1.00;;;;;;5006592;28;20835;-67
2022/08/20 08:58:49;;;;;;;24.17;7.57;;;22.20;28.80;;;;;;5013025;28;20485;-66
2022/08/20 09:01:20;;;;;;;13.10;7.30;;;22.20;1.00;;;;;;4994496;28;20404;-68
2022/08/20 09:03:50;;;;;;;7.20;6.50;;;22.30;1.00;;;;;;4999664;28;20415;-66
2022/08/20 09:06:20;;;;;;;22.90;7.63;;;22.30;99.90;;;;;;4990777;28;20411;-66
2022/08/20 09:08:49;;;;;;;12.00;6.50;;;22.40;99.90;;;;;;5012116;28;20412;-67
2022/08/20 09:11:16;;;;;;;14.23;6.97;;;22.40;99.90;;;;;;5013827;28;20403;-68
2022/08/20 09:13:43;;;;;;;13.43;6.17;;;22.30;1.00;;;;;;5013508;28;20410;-67
2022/08/20 09:16:11;;;;;;;23.03;7.77;;;22.40;1.00;;;;;;4995940;28;20502;-66
2022/08/20 09:18:37;;;;;;;22.43;7.00;;;22.50;99.90;;;;;;5012161;28;20419;-68
2022/08/20 09:21:05;;;;;;;12.53;6.57;;;22.60;1.00;;;;;;5013369;28;20498;-65
2022/08/20 09:23:31;;;;;;;9.17;6.30;;;22.80;1.00;;;;;;5013821;28;20420;-66
2022/08/20 09:25:57;;;;;;;8.40;5.90;;;22.80;1.00;;;;;;5013305;28;20496;-67
2022/08/20 09:28:23;;;;;;;6.90;5.87;;;22.90;1.00;;;;;;5012721;28;20419;-66
2022/08/20 09:30:48;;;;;;;11.33;6.53;;;22.90;28.70;;;;;;5013424;28;20662;-68
2022/08/20 09:33:14;;;;;;;12.40;5.73;;;23.10;99.90;;;;;;5013495;28;20652;-68
2022/08/20 09:35:40;;;;;;;12.60;5.40;;;23.30;70.10;;;;;;5010018;28;20322;-67
2022/08/20 09:38:06;;;;;;;15.23;5.53;;;23.20;1.00;;;;;;5011938;28;20649;-66
2022/08/20 09:40:32;;;;;;;8.13;4.87;;;23.30;1.00;;;;;;5011296;28;20195;-68
2022/08/20 09:42:58;;;;;;;5.00;4.00;;;23.40;1.00;;;;;;5012701;28;20168;-66
2022/08/20 09:45:24;;;;;;;18.13;4.33;;;23.50;99.90;;;;;;5012234;28;20439;-68
2022/08/20 09:47:50;;;;;;;5.10;3.10;;;23.50;99.90;;;;;;5012044;28;20177;-67
2022/08/20 09:50:15;;;;;;;4.57;3.77;;;23.50;1.00;;;;;;5011692;28;20618;-67
2022/08/20 09:52:46;;;;;;;10.30;4.07;;;23.60;1.00;;;;;;5012208;28;20176;-67
2022/08/20 09:55:34;;;;;;;8.03;3.50;;;23.70;28.00;;;;;;5011665;28;20204;-67
2022/08/20 09:58:05;;;;;;;12.70;4.20;;;23.70;71.10;;;;;;5006621;28;20446;-67
2022/08/20 10:00:30;;;;;;;35.67;5.43;;;23.70;1.00;;;;;;5012003;28;20447;-67
2022/08/20 10:02:56;;;;;;;8.13;4.40;;;23.80;1.00;;;;;;5014751;28;20481;-67
2022/08/20 10:05:22;;;;;;;12.13;4.33;;;23.80;1.00;;;;;;5023829;28;20198;-67
2022/08/20 10:07:48;;;;;;;6.27;3.90;;;23.90;1.00;;;;;;5018197;28;20173;-67
2022/08/20 10:10:14;;;;;;;5.50;3.37;;;23.90;1.00;;;;;;4998409;28;20503;-67
2022/08/20 10:12:41;;;;;;;20.67;4.63;;;23.90;1.00;;;;;;5008836;28;20185;-67
2022/08/20 10:15:08;;;;;;;22.17;4.70;;;23.90;1.00;;;;;;5009382;28;20459;-67
2022/08/20 10:17:39;;;;;;;6.80;3.87;;;23.90;1.00;;;;;;5011182;28;20486;-68
2022/08/20 10:20:07;;;;;;;5.90;3.57;;;24.00;1.00;;;;;;5012896;28;20546;-66
2022/08/20 10:22:34;;;;;;;3.97;3.63;;;24.00;1.00;;;;;;5013267;28;20759;-66
2022/08/20 10:25:00;;;;;;;5.20;4.63;;;24.00;1.00;;;;;;4995349;28;20427;-67
2022/08/20 10:27:26;;;;;;;9.70;3.70;;;24.00;1.00;;;;;;5012911;28;20418;-66
2022/08/20 10:29:51;;;;;;;9.10;3.80;;;24.00;1.00;;;;;;4995030;28;20423;-67
2022/08/20 10:32:18;;;;;;;4.23;3.40;;;23.90;1.00;;;;;;5012647;28;20175;-67
2022/08/20 10:34:45;;;;;;;6.37;3.73;;;23.50;1.00;;;;;;4994978;28;20282;-66
2022/08/20 10:37:19;;;;;;;3.93;3.20;;;23.30;1.00;;;;;;5012380;28;20973;-66
2022/08/20 10:39:46;;;;;;;6.77;3.23;;;23.10;1.00;;;;;;5012220;28;20443;-66
2022/08/20 10:42:12;;;;;;;10.13;3.63;;;23.20;1.00;;;;;;5012402;28;20403;-67
2022/08/20 10:44:38;;;;;;;9.40;3.13;;;23.40;1.00;;;;;;5012679;28;20758;-67
2022/08/20 10:47:24;;;;;;;8.83;4.20;;;23.50;1.00;;;;;;5012158;28;20493;-67
2022/08/20 10:49:54;;;;;;;20.83;4.67;;;23.60;1.00;;;;;;5012139;28;20407;-66
2022/08/20 10:52:21;;;;;;;11.77;3.93;;;23.50;1.00;;;;;;5012451;28;20514;-67
2022/08/20 10:54:47;;;;;;;3.27;3.07;;;23.50;1.00;;;;;;5012355;28;20893;-66
2022/08/20 10:57:18;;;;;;;8.43;3.80;;;23.80;1.00;;;;;;5011855;28;20419;-67
2022/08/20 10:59:46;;;;;;;22.17;4.10;;;24.10;1.00;;;;;;5011984;28;20286;-67
2022/08/20 11:02:13;;;;;;;24.83;4.90;;;24.20;1.00;;;;;;5012113;28;20399;-66
2022/08/20 11:04:41;;;;;;;9.07;3.70;;;24.30;1.00;;;;;;5011791;28;20451;-67
2022/08/20 11:07:24;;;;;;;15.60;4.53;;;24.20;1.00;;;;;;5012124;28;20412;-67
2022/08/20 11:09:50;;;;;;;15.70;4.87;;;24.00;1.00;;;;;;5011983;28;20446;-67
2022/08/20 11:12:18;;;;;;;9.90;4.50;;;23.90;1.00;;;;;;5012472;28;20765;-66
2022/08/20 11:14:44;;;;;;;5.80;4.13;;;23.80;1.00;;;;;;5012343;28;20427;-67
2022/08/20 11:17:11;;;;;;;7.50;4.17;;;23.60;1.00;;;;;;5012117;28;20971;-66
2022/08/20 11:19:42;;;;;;;6.90;3.60;;;23.60;1.00;;;;;;5011953;28;20894;-66
2022/08/20 11:22:09;;;;;;;5.63;3.53;;;23.30;1.00;;;;;;5011871;28;20408;-66
2022/08/20 11:24:35;;;;;;;13.77;4.63;;;23.30;1.00;;;;;;5011994;28;20431;-67
2022/08/20 11:27:01;;;;;;;9.60;3.80;;;23.40;1.00;;;;;;5012046;28;20403;-66
2022/08/20 11:29:27;;;;;;;7.10;4.03;;;23.40;37.30;;;;;;5011790;28;20469;-67
2022/08/20 11:31:53;;;;;;;5.37;3.93;;;23.40;1.00;;;;;;5011460;28;20407;-66
2022/08/20 11:34:19;;;;;;;14.93;4.07;;;23.40;1.00;;;;;;5011967;28;20192;-67
2022/08/20 11:36:46;;;;;;;10.23;4.13;;;23.30;1.00;;;;;;5011475;28;20173;-69
2022/08/20 11:39:12;;;;;;;17.07;4.00;;;23.30;1.00;;;;;;5011526;28;20191;-66
2022/08/20 11:41:39;;;;;;;7.40;4.20;;;23.20;1.00;;;;;;5011813;28;20395;-66
2022/08/20 11:44:05;;;;;;;9.50;3.93;;;22.90;1.00;;;;;;5011574;28;20184;-67
2022/08/20 11:46:34;;;;;;;9.13;4.13;;;22.80;80.30;;;;;;5011717;28;20802;-66
2022/08/20 11:49:00;;;;;;;15.80;5.43;;;22.90;99.90;;;;;;5011418;28;20477;-67
2022/08/20 11:51:26;;;;;;;17.20;6.27;;;22.80;15.00;;;;;;5011665;28;20443;-67
2022/08/20 11:53:52;;;;;;;6.33;4.57;;;22.60;1.00;;;;;;5011363;28;20427;-66
2022/08/20 11:56:19;;;;;;;15.13;6.03;;;22.40;99.90;;;;;;5011672;28;20176;-67
2022/08/20 11:58:45;;;;;;;24.30;8.33;;;21.80;99.90;;;;;;5011500;28;20704;-67
2022/08/20 12:01:12;;;;;;;20.83;6.17;;;21.70;99.90;;;;;;5011507;28;20455;-67
2022/08/20 12:03:37;;;;;;;19.63;4.70;;;21.60;1.00;;;;;;5011434;28;20825;-67
2022/08/20 12:06:03;;;;;;;12.80;3.90;;;21.60;1.00;;;;;;5011490;28;20485;-67
2022/08/20 12:08:29;;;;;;;7.33;3.43;;;21.50;1.00;;;;;;5010033;28;20673;-67
2022/08/20 12:11:01;;;;;;;14.80;4.30;;;21.50;1.00;;;;;;5011800;28;20437;-67
2022/08/20 12:13:28;;;;;;;29.13;6.60;;;21.40;99.90;;;;;;5011406;28;20200;-67
2022/08/20 12:15:55;;;;;;;20.73;5.30;;;21.40;99.90;;;;;;5011318;28;20429;-67
2022/08/20 12:18:21;;;;;;;17.37;4.63;;;21.40;99.90;;;;;;5010769;28;20955;-68
2022/08/20 12:20:47;;;;;;;5.33;3.90;;;21.20;99.90;;;;;;5011106;28;20450;-67
2022/08/20 12:23:12;;;;;;;4.37;3.00;;;21.10;1.00;;;;;;5011452;28;20498;-66
2022/08/20 12:25:39;;;;;;;11.50;5.50;;;20.90;1.00;;;;;;5011221;28;20427;-66
2022/08/20 12:28:05;;;;;;;10.20;4.27;;;21.00;1.00;;;;;;5010522;28;20167;-67
2022/08/20 12:30:31;;;;;;;9.27;5.07;;;21.10;1.00;;;;;;5011273;28;20776;-67
2022/08/20 12:32:58;;;;;;;10.40;5.90;;;21.00;1.00;;;;;;5011178;28;20168;-67
2022/08/20 12:35:25;;;;;;;10.20;3.27;;;20.80;1.00;;;;;;5011328;28;20435;-67
2022/08/20 12:37:51;;;;;;;18.50;4.20;;;20.50;99.90;;;;;;5011090;28;20407;-66
2022/08/20 12:40:21;;;;;;;15.33;4.00;;;20.20;99.90;;;;;;5011173;28;20455;-67
2022/08/20 12:42:47;;;;;;;14.03;4.37;;;20.00;1.00;;;;;;5013934;28;20399;-67
2022/08/20 12:45:14;;;;;;;12.07;2.77;;;20.10;1.00;;;;;;5014921;28;21009;-66
2022/08/20 12:47:43;;;;;;;16.20;3.80;;;19.90;99.90;;;;;;5014799;28;20299;-67
2022/08/20 12:50:14;;;;;;;42.97;6.87;;;19.90;99.90;;;;;;5014843;28;20407;-66
2022/08/20 12:52:40;;;;;;;18.67;4.50;;;20.10;99.90;;;;;;5014832;28;20417;-66
2022/08/20 12:55:08;;;;;;;14.10;4.00;;;20.20;99.90;;;;;;5014529;28;20451;-66